Time;durP1;ratioP1;P1;durP2;ratioP2;P2;SDS_P1;SDS_P2;PMS_P1;PMS_P2;Temp;Humidity;BMP_temperature;BMP_pressure;BME280_temperature;BME280_humidity;BME280_pressure;Samples;Min_cycle;Max_cycle;Signal;HPM_P1;HPM_P2
2024/01/15 00:00:59;;;;;;;13.35;9.05;;;1.30;99.90;;;;;;5074390;28;20232;-66
2024/01/15 00:03:26;;;;;;;12.75;8.50;;;1.30;99.90;;;;;;5074429;28;20216;-65
2024/01/15 00:05:53;;;;;;;10.02;6.63;;;1.30;99.90;;;;;;5074302;28;20201;-66
2024/01/15 00:08:21;;;;;;;12.20;7.72;;;1.30;99.90;;;;;;5075482;28;20194;-66
2024/01/15 00:10:48;;;;;;;13.80;8.15;;;1.40;99.90;;;;;;5074170;28;20228;-66
2024/01/15 00:13:14;;;;;;;13.48;8.23;;;1.40;99.90;;;;;;5074688;28;20182;-65
2024/01/15 00:15:41;;;;;;;11.93;7.60;;;1.40;99.90;;;;;;5074948;28;20212;-66
2024/01/15 00:18:08;;;;;;;8.65;5.75;;;1.50;99.90;;;;;;5074286;28;20225;-66
2024/01/15 00:20:35;;;;;;;14.02;8.40;;;1.50;99.90;;;;;;5076183;28;20296;-67
2024/01/15 00:23:02;;;;;;;13.00;7.10;;;1.50;99.90;;;;;;5074651;28;20316;-66
2024/01/15 00:25:30;;;;;;;11.07;7.28;;;1.50;99.90;;;;;;5074557;28;20200;-68
2024/01/15 00:27:56;;;;;;;11.35;7.55;;;1.50;99.90;;;;;;5076063;28;20197;-66
2024/01/15 00:30:23;;;;;;;11.15;6.20;;;1.50;99.90;;;;;;5080165;28;20196;-66
2024/01/15 00:32:50;;;;;;;11.20;8.00;;;1.40;99.90;;;;;;5078448;28;20740;-66
2024/01/15 00:35:17;;;;;;;12.57;6.82;;;1.40;99.90;;;;;;5078888;28;20197;-66
2024/01/15 00:37:43;;;;;;;14.50;8.20;;;1.40;99.90;;;;;;5078325;28;20592;-67
2024/01/15 00:40:10;;;;;;;9.70;7.38;;;1.40;99.90;;;;;;5078101;28;20228;-66
2024/01/15 00:42:39;;;;;;;10.00;7.15;;;1.50;99.90;;;;;;5079031;28;20721;-66
2024/01/15 00:45:07;;;;;;;13.07;7.88;;;1.50;99.90;;;;;;5083818;28;20554;-67
2024/01/15 00:47:34;;;;;;;11.52;6.95;;;1.40;99.90;;;;;;5082521;28;20232;-67
2024/01/15 00:50:01;;;;;;;9.05;6.35;;;1.40;99.90;;;;;;5078422;28;20201;-67
2024/01/15 00:52:28;;;;;;;11.65;7.45;;;1.30;99.90;;;;;;5078828;28;20227;-66
2024/01/15 00:54:54;;;;;;;10.05;6.95;;;1.30;99.90;;;;;;5078254;28;20212;-67
2024/01/15 00:57:21;;;;;;;8.80;5.90;;;1.20;99.90;;;;;;5078545;28;20224;-66
2024/01/15 00:59:49;;;;;;;10.38;5.95;;;1.30;99.90;;;;;;5077930;28;20205;-67
2024/01/15 01:02:16;;;;;;;10.20;5.95;;;1.30;99.90;;;;;;5078105;28;20224;-64
2024/01/15 01:04:43;;;;;;;8.82;5.82;;;1.30;99.90;;;;;;5077975;28;20205;-67
2024/01/15 01:07:09;;;;;;;10.57;7.15;;;1.30;99.90;;;;;;5077712;28;20203;-66
2024/01/15 01:09:36;;;;;;;13.25;6.18;;;1.30;99.90;;;;;;5079670;28;20310;-65
2024/01/15 01:12:03;;;;;;;12.77;5.05;;;1.30;99.90;;;;;;5092258;28;20263;-67
2024/01/15 01:14:30;;;;;;;11.30;6.63;;;1.30;99.90;;;;;;5093722;28;20205;-66
2024/01/15 01:16:58;;;;;;;7.07;5.18;;;1.30;99.90;;;;;;5090220;28;20649;-66
2024/01/15 01:19:25;;;;;;;8.75;6.20;;;1.30;99.90;;;;;;5081925;28;20725;-66
2024/01/15 01:21:52;;;;;;;8.73;6.07;;;1.30;99.90;;;;;;5081348;28;20221;-66
2024/01/15 01:24:19;;;;;;;6.88;4.85;;;1.30;99.90;;;;;;5078794;28;20201;-66
2024/01/15 01:26:46;;;;;;;11.48;5.28;;;1.30;99.90;;;;;;5077162;28;20205;-66
2024/01/15 01:29:13;;;;;;;12.27;5.25;;;1.20;99.90;;;;;;5077087;28;20248;-66
2024/01/15 01:31:44;;;;;;;11.90;4.93;;;1.20;99.90;;;;;;5077924;28;20745;-67
2024/01/15 01:34:14;;;;;;;6.82;3.35;;;1.20;99.90;;;;;;5078559;28;20201;-67
2024/01/15 01:36:41;;;;;;;14.00;4.28;;;1.30;99.90;;;;;;5077909;28;20195;-66
2024/01/15 01:39:08;;;;;;;11.27;4.28;;;1.30;99.90;;;;;;5077860;28;20228;-66
2024/01/15 01:41:35;;;;;;;11.85;5.18;;;1.30;99.90;;;;;;5076975;28;20278;-67
2024/01/15 01:44:02;;;;;;;9.15;3.70;;;1.30;99.90;;;;;;5077835;28;20603;-66
2024/01/15 01:46:29;;;;;;;6.28;3.10;;;1.40;99.90;;;;;;5088426;28;20268;-67
2024/01/15 01:48:57;;;;;;;7.90;3.97;;;1.30;99.90;;;;;;5092411;28;20244;-66
2024/01/15 01:51:26;;;;;;;6.32;3.45;;;1.40;99.90;;;;;;5078451;28;20225;-66
2024/01/15 01:53:52;;;;;;;5.60;2.90;;;1.40;99.90;;;;;;5077754;28;20205;-66
2024/01/15 01:56:19;;;;;;;6.82;3.28;;;1.40;99.90;;;;;;5078546;28;20201;-65
2024/01/15 01:58:48;;;;;;;5.28;2.75;;;1.40;99.90;;;;;;5080814;28;20717;-66
2024/01/15 02:01:16;;;;;;;5.55;3.00;;;1.50;99.90;;;;;;5081267;28;20235;-66
2024/01/15 02:03:44;;;;;;;6.05;2.65;;;1.50;99.90;;;;;;5081727;28;20205;-66
2024/01/15 02:06:11;;;;;;;6.65;3.10;;;1.50;99.90;;;;;;5081282;28;20205;-66
2024/01/15 02:08:40;;;;;;;8.43;3.20;;;1.60;99.90;;;;;;5082102;28;20269;-66
2024/01/15 02:11:07;;;;;;;6.50;3.15;;;1.60;99.90;;;;;;5080874;28;20239;-66
2024/01/15 02:13:33;;;;;;;6.10;2.92;;;1.60;99.90;;;;;;5079004;28;20193;-66
2024/01/15 02:16:00;;;;;;;4.80;2.40;;;1.70;99.90;;;;;;5077694;28;20207;-66
2024/01/15 02:18:27;;;;;;;8.38;3.50;;;1.70;99.90;;;;;;5076909;28;20217;-66
2024/01/15 02:20:54;;;;;;;7.25;2.70;;;1.70;99.90;;;;;;5076993;28;20225;-66
2024/01/15 02:23:22;;;;;;;6.35;2.90;;;1.70;99.90;;;;;;5076901;28;20211;-67
2024/01/15 02:25:48;;;;;;;3.72;2.63;;;1.80;99.90;;;;;;5076410;28;20276;-66
2024/01/15 02:28:17;;;;;;;5.50;2.45;;;1.80;99.90;;;;;;5076804;28;20204;-66
2024/01/15 02:30:44;;;;;;;6.40;2.55;;;1.80;99.90;;;;;;5077073;28;20205;-68
2024/01/15 02:33:12;;;;;;;9.82;3.58;;;1.90;99.90;;;;;;5076647;28;20207;-67
2024/01/15 02:35:39;;;;;;;8.23;3.00;;;1.90;99.90;;;;;;5077024;28;20215;-66
2024/01/15 02:38:06;;;;;;;3.78;1.83;;;1.90;99.90;;;;;;5076758;28;20221;-67
2024/01/15 02:40:34;;;;;;;8.82;3.22;;;1.90;99.90;;;;;;5076441;28;20224;-65
2024/01/15 02:43:01;;;;;;;7.88;2.90;;;1.90;99.90;;;;;;5076571;28;20212;-67
2024/01/15 02:45:28;;;;;;;5.13;2.22;;;1.90;99.90;;;;;;5076036;28;20642;-67
2024/01/15 02:47:55;;;;;;;9.02;2.40;;;1.90;99.90;;;;;;5076001;28;20205;-66
2024/01/15 02:50:22;;;;;;;4.15;2.40;;;1.90;99.90;;;;;;5076517;28;20204;-67
2024/01/15 02:52:48;;;;;;;5.13;2.92;;;1.90;99.90;;;;;;5075344;28;20217;-66
2024/01/15 02:55:15;;;;;;;6.13;2.20;;;1.90;99.90;;;;;;5076365;28;20212;-66
2024/01/15 02:57:43;;;;;;;3.22;1.92;;;1.90;99.90;;;;;;5075943;28;20211;-67
2024/01/15 03:00:12;;;;;;;5.90;2.88;;;1.90;99.90;;;;;;5075944;28;20201;-67
2024/01/15 03:02:40;;;;;;;10.55;2.50;;;1.90;99.90;;;;;;5076299;28;20220;-67
2024/01/15 03:05:07;;;;;;;12.40;2.40;;;1.90;99.90;;;;;;5075646;28;20201;-67
2024/01/15 03:07:34;;;;;;;4.90;2.22;;;1.90;99.90;;;;;;5075673;28;20633;-67
2024/01/15 03:10:01;;;;;;;6.63;2.00;;;1.90;99.90;;;;;;5075734;28;20283;-67
2024/01/15 03:12:28;;;;;;;7.63;2.05;;;1.90;99.90;;;;;;5075315;28;20229;-66
2024/01/15 03:14:56;;;;;;;5.05;1.83;;;1.90;99.90;;;;;;5075592;28;20232;-65
2024/01/15 03:17:23;;;;;;;5.50;1.70;;;1.90;99.90;;;;;;5074992;28;20201;-67
2024/01/15 03:19:50;;;;;;;3.05;2.00;;;1.90;99.90;;;;;;5075032;28;20587;-67
2024/01/15 03:22:17;;;;;;;2.00;1.40;;;1.90;99.90;;;;;;5076021;28;20644;-67
2024/01/15 03:24:44;;;;;;;7.20;2.42;;;1.90;99.90;;;;;;5085171;28;20227;-67
2024/01/15 03:27:11;;;;;;;9.07;2.30;;;1.90;99.90;;;;;;5089659;28;20200;-67
2024/01/15 03:29:38;;;;;;;5.68;1.55;;;1.90;99.90;;;;;;5082737;28;20201;-67
2024/01/15 03:32:06;;;;;;;2.85;1.30;;;1.90;99.90;;;;;;5078083;28;20224;-67
2024/01/15 03:34:33;;;;;;;4.78;1.80;;;1.90;99.90;;;;;;5076553;28;20208;-65
2024/01/15 03:37:00;;;;;;;5.47;1.60;;;2.00;99.90;;;;;;5075752;28;20693;-66
2024/01/15 03:39:26;;;;;;;2.33;1.10;;;2.00;99.90;;;;;;5077172;28;20212;-66
2024/01/15 03:41:53;;;;;;;9.00;1.70;;;2.00;99.90;;;;;;5076784;28;20228;-67
2024/01/15 03:44:20;;;;;;;3.72;1.50;;;2.00;99.90;;;;;;5076367;28;20208;-67
2024/01/15 03:46:47;;;;;;;4.43;1.67;;;2.00;99.90;;;;;;5078630;28;20216;-67
2024/01/15 03:49:15;;;;;;;5.55;1.50;;;2.00;99.90;;;;;;5075688;28;20360;-67
2024/01/15 03:51:42;;;;;;;5.07;1.38;;;2.10;99.90;;;;;;5080674;28;20217;-66
2024/01/15 03:54:08;;;;;;;7.30;2.95;;;2.10;99.90;;;;;;5084228;28;20197;-66
2024/01/15 03:56:35;;;;;;;4.07;2.05;;;2.10;99.90;;;;;;5076180;28;20200;-67
2024/01/15 03:59:02;;;;;;;9.38;1.95;;;2.10;99.90;;;;;;5075366;28;20217;-67
2024/01/15 04:01:29;;;;;;;5.53;1.85;;;2.10;99.90;;;;;;5075091;28;20221;-67
2024/01/15 04:03:56;;;;;;;3.85;1.92;;;2.20;99.90;;;;;;5077883;28;20229;-67
2024/01/15 04:06:24;;;;;;;5.00;1.50;;;2.20;99.90;;;;;;5076022;28;20201;-67
2024/01/15 04:08:51;;;;;;;4.40;1.92;;;2.20;99.90;;;;;;5078785;28;20197;-66
2024/01/15 04:12:59;;;;;;;5.63;1.93;;;2.20;99.90;;;;;;5098374;27;1990647;-67
2024/01/15 04:15:26;;;;;;;4.82;1.27;;;2.30;99.90;;;;;;5139294;28;20179;-66
2024/01/15 04:17:53;;;;;;;5.38;1.90;;;2.30;99.90;;;;;;5141729;28;20199;-67
2024/01/15 04:20:20;;;;;;;8.05;1.65;;;2.30;99.90;;;;;;5144331;28;20202;-67
2024/01/15 04:22:46;;;;;;;1.73;1.13;;;2.30;99.90;;;;;;5126466;28;20227;-67
2024/01/15 04:25:13;;;;;;;3.53;1.40;;;2.30;99.90;;;;;;5126276;28;20210;-66
2024/01/15 04:27:40;;;;;;;4.30;1.55;;;2.30;99.90;;;;;;5124250;28;20267;-67
2024/01/15 04:30:09;;;;;;;11.80;2.00;;;2.30;99.90;;;;;;5123786;28;20206;-67
2024/01/15 04:32:36;;;;;;;3.03;1.65;;;2.30;99.90;;;;;;5123776;28;20219;-66
2024/01/15 04:35:03;;;;;;;7.30;1.52;;;2.30;99.90;;;;;;5124217;28;20653;-67
2024/01/15 04:37:29;;;;;;;5.57;1.77;;;2.30;99.90;;;;;;5125767;28;20212;-67
2024/01/15 04:39:57;;;;;;;6.47;2.15;;;2.30;99.90;;;;;;5125883;28;20199;-67
2024/01/15 04:42:24;;;;;;;7.82;1.75;;;2.30;99.90;;;;;;5120832;28;20226;-67
2024/01/15 04:44:51;;;;;;;6.72;2.13;;;2.30;99.90;;;;;;5112595;28;20195;-67
2024/01/15 04:47:19;;;;;;;10.10;2.47;;;2.20;99.90;;;;;;5112606;28;20204;-67
2024/01/15 04:49:46;;;;;;;4.38;1.70;;;2.20;99.90;;;;;;5112371;28;20207;-65
2024/01/15 04:52:12;;;;;;;3.88;1.40;;;2.20;99.90;;;;;;5112810;28;20224;-66
2024/01/15 04:54:39;;;;;;;6.05;1.75;;;2.20;99.90;;;;;;5112875;28;20208;-67
2024/01/15 04:57:06;;;;;;;3.42;0.98;;;2.20;99.90;;;;;;5115709;28;20227;-67
2024/01/15 04:59:33;;;;;;;2.60;1.38;;;2.30;99.90;;;;;;5114017;28;20695;-67
2024/01/15 05:01:59;;;;;;;6.43;1.80;;;2.30;99.90;;;;;;5124113;22;20232;-62
2024/01/15 05:04:27;;;;;;;5.68;1.50;;;2.30;99.90;;;;;;5089799;28;20693;-62
2024/01/15 05:06:54;;;;;;;5.80;1.95;;;2.30;99.90;;;;;;5089778;28;20210;-62
2024/01/15 05:09:21;;;;;;;8.60;2.45;;;2.20;99.90;;;;;;5089650;28;20205;-63
2024/01/15 05:11:48;;;;;;;6.28;1.83;;;2.10;99.90;;;;;;5098812;28;20228;-63
2024/01/15 05:14:14;;;;;;;3.33;1.75;;;2.00;99.90;;;;;;5109797;28;20215;-62
2024/01/15 05:16:47;;;;;;;6.10;1.20;;;1.80;99.90;;;;;;5120436;28;20214;-62
2024/01/15 05:19:14;;;;;;;8.07;1.95;;;1.80;99.90;;;;;;5119303;28;20184;-62
2024/01/15 05:21:42;;;;;;;6.28;2.22;;;1.80;99.90;;;;;;5110141;28;20215;-62
2024/01/15 05:24:09;;;;;;;5.88;1.60;;;1.80;99.90;;;;;;5097553;28;20200;-62
2024/01/15 05:26:36;;;;;;;4.15;1.20;;;1.80;99.90;;;;;;5096966;28;20223;-62
2024/01/15 05:29:02;;;;;;;4.20;1.83;;;1.80;99.90;;;;;;5096726;28;20196;-61
2024/01/15 05:31:29;;;;;;;2.72;1.35;;;1.80;99.90;;;;;;5096577;28;20274;-62
2024/01/15 05:33:56;;;;;;;3.70;1.55;;;1.80;99.90;;;;;;5096895;28;20200;-63
2024/01/15 05:36:23;;;;;;;7.80;1.98;;;1.80;99.90;;;;;;5099548;28;20200;-63
2024/01/15 05:38:51;;;;;;;6.20;2.20;;;1.80;99.90;;;;;;5099622;28;20207;-62
2024/01/15 05:41:17;;;;;;;4.80;1.98;;;1.80;99.90;;;;;;5097651;28;20212;-62
2024/01/15 05:43:44;;;;;;;4.22;2.58;;;1.80;99.90;;;;;;5098529;28;20201;-62
2024/01/15 05:46:11;;;;;;;6.90;1.30;;;1.80;99.90;;;;;;5099141;28;20203;-63
2024/01/15 05:48:38;;;;;;;4.70;1.80;;;1.80;99.90;;;;;;5098832;28;20232;-63
2024/01/15 05:51:05;;;;;;;3.08;1.25;;;1.80;99.90;;;;;;5096236;28;20604;-63
2024/01/15 05:53:31;;;;;;;3.38;1.95;;;1.90;99.90;;;;;;5096276;28;20524;-62
2024/01/15 05:56:01;;;;;;;6.70;1.60;;;1.90;99.90;;;;;;5095982;28;20200;-63
2024/01/15 05:58:27;;;;;;;2.65;1.48;;;1.90;99.90;;;;;;5096013;28;20240;-63
2024/01/15 06:00:54;;;;;;;6.93;2.90;;;1.90;99.90;;;;;;5095878;28;20200;-63
2024/01/15 06:03:21;;;;;;;5.55;1.98;;;2.00;99.90;;;;;;5096319;28;20184;-63
2024/01/15 06:05:48;;;;;;;3.22;1.33;;;2.00;99.90;;;;;;5095966;28;20196;-62
2024/01/15 06:08:15;;;;;;;3.70;1.55;;;2.00;99.90;;;;;;5095806;28;20234;-62
2024/01/15 06:10:42;;;;;;;2.85;1.52;;;2.00;99.90;;;;;;5095827;28;20200;-62
2024/01/15 06:13:11;;;;;;;8.70;1.70;;;1.90;99.90;;;;;;5095762;28;20220;-62
2024/01/15 06:15:38;;;;;;;2.13;1.35;;;1.90;99.90;;;;;;5095492;28;20196;-63
2024/01/15 06:18:05;;;;;;;6.30;1.70;;;1.90;99.90;;;;;;5095570;28;20200;-63
2024/01/15 06:20:32;;;;;;;4.60;1.40;;;1.90;99.90;;;;;;5095315;28;20255;-63
2024/01/15 06:22:59;;;;;;;6.53;1.65;;;1.90;99.90;;;;;;5095232;28;20224;-63
2024/01/15 06:25:26;;;;;;;2.70;1.52;;;1.90;99.90;;;;;;5095474;28;20203;-63
2024/01/15 06:27:52;;;;;;;9.48;2.17;;;1.90;99.90;;;;;;5095514;28;20201;-61
2024/01/15 06:30:20;;;;;;;4.65;1.90;;;1.90;99.90;;;;;;5097522;28;20591;-64
2024/01/15 06:32:47;;;;;;;3.53;1.40;;;1.80;99.90;;;;;;5097644;28;20582;-64
2024/01/15 06:35:14;;;;;;;6.18;2.60;;;1.80;99.90;;;;;;5094906;28;20196;-63
2024/01/15 06:37:41;;;;;;;4.72;1.98;;;1.70;99.90;;;;;;5095423;28;20322;-63
2024/01/15 06:40:09;;;;;;;11.27;2.03;;;1.70;99.90;;;;;;5095551;28;20207;-63
2024/01/15 06:42:36;;;;;;;7.75;2.30;;;1.60;99.90;;;;;;5096038;28;20216;-63
2024/01/15 06:45:03;;;;;;;9.60;2.78;;;1.60;99.90;;;;;;5096023;28;20674;-62
2024/01/15 06:47:32;;;;;;;4.95;2.03;;;1.70;99.90;;;;;;5095474;28;20200;-63
2024/01/15 06:49:59;;;;;;;3.38;1.55;;;1.70;99.90;;;;;;5095891;28;20288;-63
2024/01/15 06:52:25;;;;;;;4.53;1.73;;;1.70;99.90;;;;;;5095703;28;20232;-63
2024/01/15 06:54:52;;;;;;;3.95;2.03;;;1.70;99.90;;;;;;5096296;28;20261;-62
2024/01/15 06:57:20;;;;;;;7.60;2.13;;;1.70;99.90;;;;;;5096041;28;20208;-63
2024/01/15 06:59:47;;;;;;;3.50;2.17;;;1.80;99.90;;;;;;5095910;28;20200;-62
2024/01/15 07:02:14;;;;;;;7.10;1.73;;;1.80;99.90;;;;;;5095927;28;20220;-63
2024/01/15 07:04:42;;;;;;;4.10;2.72;;;1.90;99.90;;;;;;5095877;28;20201;-63
2024/01/15 07:07:09;;;;;;;5.57;2.00;;;1.90;99.90;;;;;;5095593;28;20200;-63
2024/01/15 07:09:36;;;;;;;5.30;1.60;;;1.90;99.90;;;;;;5095049;28;20197;-65
2024/01/15 07:12:03;;;;;;;5.30;1.65;;;1.90;99.90;;;;;;5094431;28;20228;-64
2024/01/15 07:14:30;;;;;;;4.47;2.17;;;2.00;99.90;;;;;;5094589;28;20204;-63
2024/01/15 07:16:57;;;;;;;6.10;2.38;;;2.00;99.90;;;;;;5094959;28;20200;-62
2024/01/15 07:19:23;;;;;;;3.05;1.77;;;2.00;99.90;;;;;;5114271;28;20211;-65
2024/01/15 07:21:51;;;;;;;7.13;2.50;;;2.00;99.90;;;;;;5097545;28;20686;-66
2024/01/15 07:24:18;;;;;;;5.40;2.25;;;2.00;99.90;;;;;;5095847;28;20231;-62
2024/01/15 07:26:45;;;;;;;5.45;2.03;;;1.90;99.90;;;;;;5094382;28;20206;-63
2024/01/15 07:29:12;;;;;;;6.00;2.65;;;1.80;99.90;;;;;;5094285;28;20222;-62
2024/01/15 07:31:38;;;;;;;3.80;2.28;;;1.70;99.90;;;;;;5093500;28;20225;-62
2024/01/15 07:34:06;;;;;;;4.00;2.47;;;1.70;99.90;;;;;;5093767;28;20262;-64
2024/01/15 07:36:32;;;;;;;5.40;2.60;;;1.70;99.90;;;;;;5093788;28;20624;-64
2024/01/15 07:39:01;;;;;;;5.28;2.42;;;1.60;99.90;;;;;;5093654;28;20577;-63
2024/01/15 07:41:27;;;;;;;3.47;2.00;;;1.60;99.90;;;;;;5096026;28;20224;-61
2024/01/15 07:43:54;;;;;;;7.65;2.40;;;1.60;99.90;;;;;;5097226;28;20211;-64
2024/01/15 07:46:21;;;;;;;2.22;2.03;;;1.70;99.90;;;;;;5097404;28;20207;-62
2024/01/15 07:48:47;;;;;;;7.25;2.47;;;1.70;99.90;;;;;;5095493;28;20211;-63
2024/01/15 07:51:14;;;;;;;4.03;1.95;;;1.60;99.90;;;;;;5094471;28;20718;-64
2024/01/15 07:53:41;;;;;;;4.15;2.25;;;1.60;99.90;;;;;;5093111;28;20690;-64
2024/01/15 07:56:09;;;;;;;2.85;1.45;;;1.60;99.90;;;;;;5093866;28;20200;-64
2024/01/15 07:58:36;;;;;;;6.72;3.13;;;1.60;99.90;;;;;;5093663;28;20336;-63
2024/01/15 08:01:03;;;;;;;5.93;2.70;;;1.60;99.90;;;;;;5093589;28;20683;-61
2024/01/15 08:03:29;;;;;;;7.00;3.05;;;1.50;99.90;;;;;;5094830;28;20185;-62
2024/01/15 08:05:59;;;;;;;5.82;2.75;;;1.50;99.90;;;;;;5095387;28;20522;-62
2024/01/15 08:08:26;;;;;;;6.82;2.70;;;1.50;99.90;;;;;;5098211;28;20200;-62
2024/01/15 08:10:53;;;;;;;9.25;3.60;;;1.50;99.90;;;;;;5101637;28;20223;-62
2024/01/15 08:13:21;;;;;;;4.38;2.72;;;1.50;99.90;;;;;;5100540;28;20224;-61
2024/01/15 08:15:48;;;;;;;4.88;2.72;;;1.40;99.90;;;;;;5095813;28;20207;-63
2024/01/15 08:18:14;;;;;;;4.68;2.90;;;1.40;99.90;;;;;;5094642;28;20652;-63
2024/01/15 08:20:41;;;;;;;7.35;3.00;;;1.40;99.90;;;;;;5093712;28;20630;-63
2024/01/15 08:23:09;;;;;;;10.10;2.97;;;1.30;99.90;;;;;;5093424;28;20273;-63
2024/01/15 08:25:36;;;;;;;6.32;2.58;;;1.20;99.90;;;;;;5094055;28;20203;-63
2024/01/15 08:28:03;;;;;;;4.80;2.92;;;1.20;99.90;;;;;;5094623;28;20208;-65
2024/01/15 08:30:31;;;;;;;2.35;2.15;;;1.10;99.90;;;;;;5094587;28;20684;-63
2024/01/15 08:32:59;;;;;;;8.32;3.78;;;1.20;99.90;;;;;;5093176;28;20690;-63
2024/01/15 08:35:25;;;;;;;2.53;2.25;;;1.20;99.90;;;;;;5094622;28;20196;-63
2024/01/15 08:37:53;;;;;;;5.35;2.47;;;1.20;99.90;;;;;;5093755;28;20196;-62
2024/01/15 08:40:20;;;;;;;5.53;2.20;;;1.20;99.90;;;;;;5093934;28;20203;-62
2024/01/15 08:42:46;;;;;;;1.58;1.48;;;1.30;99.90;;;;;;5093393;28;20605;-63
2024/01/15 08:45:13;;;;;;;4.75;2.05;;;1.30;99.90;;;;;;5093345;28;20201;-61
2024/01/15 08:47:41;;;;;;;3.33;2.60;;;1.40;99.90;;;;;;5093629;28;20206;-63
2024/01/15 08:50:10;;;;;;;2.65;2.05;;;1.40;99.90;;;;;;5093062;28;20227;-62
2024/01/15 08:52:37;;;;;;;4.15;2.13;;;1.50;99.90;;;;;;5092811;28;20654;-63
2024/01/15 08:55:04;;;;;;;3.63;2.05;;;1.50;99.90;;;;;;5093579;28;20196;-61
2024/01/15 08:57:31;;;;;;;5.93;2.15;;;1.60;99.90;;;;;;5092975;28;20331;-61
2024/01/15 08:59:58;;;;;;;4.18;2.05;;;1.70;99.90;;;;;;5096930;28;20200;-62
2024/01/15 09:02:25;;;;;;;10.65;2.83;;;1.90;99.90;;;;;;5096332;28;20717;-62
2024/01/15 09:04:53;;;;;;;3.10;1.80;;;1.90;99.90;;;;;;5096851;28;20200;-63
2024/01/15 09:07:20;;;;;;;11.13;2.45;;;2.00;99.90;;;;;;5097180;28;20211;-62
2024/01/15 09:09:46;;;;;;;5.47;2.67;;;2.00;99.90;;;;;;5099114;28;20208;-63
2024/01/15 09:12:15;;;;;;;3.22;1.92;;;2.00;99.90;;;;;;5099705;28;20230;-62
2024/01/15 09:14:42;;;;;;;4.30;2.20;;;2.00;99.90;;;;;;5097339;28;20621;-63
2024/01/15 09:17:09;;;;;;;4.43;2.10;;;2.00;99.90;;;;;;5097999;28;20200;-62
2024/01/15 09:19:35;;;;;;;4.35;2.25;;;2.00;99.90;;;;;;5104625;28;20200;-62
2024/01/15 09:22:04;;;;;;;5.57;2.35;;;2.00;99.90;;;;;;5110974;28;20693;-63
2024/01/15 09:24:31;;;;;;;6.95;2.35;;;2.00;99.90;;;;;;5096331;28;20212;-64
2024/01/15 09:26:57;;;;;;;6.88;2.42;;;2.00;99.90;;;;;;5096550;28;20291;-61
2024/01/15 09:29:24;;;;;;;7.00;2.05;;;2.00;99.90;;;;;;5096622;28;20208;-63
2024/01/15 09:31:51;;;;;;;5.45;2.00;;;2.10;99.90;;;;;;5095907;28;20336;-63
2024/01/15 09:34:19;;;;;;;7.38;2.85;;;2.10;99.90;;;;;;5095934;28;20592;-63
2024/01/15 09:36:45;;;;;;;4.60;2.40;;;2.10;99.90;;;;;;5095982;28;20207;-62
2024/01/15 09:39:15;;;;;;;6.47;2.65;;;2.20;99.90;;;;;;5096002;28;20282;-62
2024/01/15 09:41:42;;;;;;;9.07;2.75;;;2.20;99.90;;;;;;5096040;28;20221;-62
2024/01/15 09:44:11;;;;;;;2.80;1.70;;;2.20;99.90;;;;;;5095394;28;20204;-63
2024/01/15 09:46:38;;;;;;;2.55;2.35;;;2.30;99.90;;;;;;5095440;28;20670;-62
2024/01/15 09:49:06;;;;;;;7.85;2.20;;;2.30;99.90;;;;;;5095529;28;20677;-62
2024/01/15 09:51:33;;;;;;;4.10;2.58;;;2.30;99.90;;;;;;5096097;28;20228;-62
2024/01/15 09:53:59;;;;;;;4.72;2.20;;;2.40;99.90;;;;;;5095565;28;20589;-63
2024/01/15 09:56:28;;;;;;;6.18;2.50;;;2.40;99.90;;;;;;5095749;28;20533;-63
2024/01/15 09:58:57;;;;;;;3.30;2.17;;;2.40;99.90;;;;;;5095395;28;20241;-63
2024/01/15 10:01:25;;;;;;;2.95;1.75;;;2.40;99.90;;;;;;5095226;28;20234;-63
2024/01/15 10:03:52;;;;;;;3.97;2.15;;;2.30;99.90;;;;;;5095364;28;20200;-64
2024/01/15 10:06:22;;;;;;;5.60;2.67;;;2.40;99.90;;;;;;5095799;28;20265;-63
2024/01/15 10:08:49;;;;;;;7.72;2.13;;;2.30;99.90;;;;;;5094921;28;20200;-62
2024/01/15 10:11:16;;;;;;;4.40;2.50;;;2.30;99.90;;;;;;5095872;28;20311;-62
2024/01/15 10:13:45;;;;;;;3.72;2.00;;;2.30;99.90;;;;;;5096395;28;20689;-62
2024/01/15 10:16:12;;;;;;;4.80;2.55;;;2.20;99.90;;;;;;5095552;28;20200;-64
2024/01/15 10:18:39;;;;;;;2.10;1.90;;;2.20;99.90;;;;;;5095474;28;20238;-63
2024/01/15 10:21:08;;;;;;;2.70;2.20;;;2.20;99.90;;;;;;5096218;28;20227;-62
2024/01/15 10:23:36;;;;;;;3.58;1.90;;;2.20;99.90;;;;;;5095546;28;20569;-63
2024/01/15 10:26:03;;;;;;;3.53;2.00;;;2.10;99.90;;;;;;5095526;28;20712;-63
2024/01/15 10:28:31;;;;;;;2.00;1.80;;;2.10;99.90;;;;;;5096053;28;20270;-62
2024/01/15 10:31:00;;;;;;;6.53;2.28;;;2.20;99.90;;;;;;5096857;28;20200;-63
2024/01/15 10:33:28;;;;;;;6.95;2.50;;;2.30;99.90;;;;;;5097909;28;20216;-63
2024/01/15 10:35:55;;;;;;;5.63;1.95;;;2.30;99.90;;;;;;5096946;28;20206;-63
2024/01/15 10:38:23;;;;;;;2.30;1.45;;;2.40;99.90;;;;;;5096788;28;20234;-61
2024/01/15 10:40:53;;;;;;;4.68;2.97;;;2.50;99.90;;;;;;5096035;28;20692;-63
2024/01/15 10:43:19;;;;;;;3.95;1.88;;;2.60;99.90;;;;;;5097557;28;20204;-62
2024/01/15 10:45:47;;;;;;;2.75;2.33;;;2.70;99.90;;;;;;5096735;28;20211;-63
2024/01/15 10:48:18;;;;;;;2.85;1.48;;;2.70;99.90;;;;;;5097126;28;20212;-63
2024/01/15 10:50:45;;;;;;;5.35;2.40;;;2.80;99.90;;;;;;5096820;28;20192;-63
2024/01/15 10:53:13;;;;;;;4.45;2.42;;;2.80;99.90;;;;;;5096644;28;20223;-63
2024/01/15 10:55:42;;;;;;;4.88;2.25;;;2.80;99.90;;;;;;5098304;28;20204;-63
2024/01/15 10:58:09;;;;;;;4.05;2.00;;;2.80;99.90;;;;;;5097262;28;20207;-63
2024/01/15 11:00:37;;;;;;;4.90;2.30;;;2.70;99.90;;;;;;5095942;28;20204;-60
2024/01/15 11:03:06;;;;;;;8.55;3.10;;;2.60;99.90;;;;;;5096058;28;20228;-61
2024/01/15 11:05:38;;;;;;;3.65;1.83;;;2.60;99.90;;;;;;5095167;28;20666;-60
2024/01/15 11:08:06;;;;;;;5.97;2.17;;;2.60;99.90;;;;;;5095375;28;20188;-61
2024/01/15 11:10:41;;;;;;;5.88;1.85;;;2.60;99.90;;;;;;5094649;28;20211;-60
2024/01/15 11:13:10;;;;;;;4.45;1.35;;;2.60;99.90;;;;;;5094022;28;20219;-61
2024/01/15 11:16:01;;;;;;;5.03;2.45;;;2.70;99.90;;;;;;5094071;28;20253;-60
2024/01/15 11:18:30;;;;;;;3.55;1.75;;;2.70;99.90;;;;;;5094698;28;20191;-61
2024/01/15 11:21:27;;;;;;;8.30;1.75;;;2.90;99.90;;;;;;5093513;28;20696;-61
2024/01/15 11:23:57;;;;;;;2.22;1.95;;;3.00;99.90;;;;;;5068760;28;20200;-60
2024/01/15 11:26:30;;;;;;;2.30;2.10;;;3.10;99.90;;;;;;5098809;28;20262;-62
2024/01/15 11:28:58;;;;;;;6.80;2.00;;;3.10;99.90;;;;;;5094367;28;20203;-61
2024/01/15 11:31:28;;;;;;;8.50;1.80;;;3.20;99.90;;;;;;5094510;28;20255;-59
2024/01/15 11:33:56;;;;;;;6.15;1.92;;;3.20;99.90;;;;;;5093933;28;20220;-60
2024/01/15 11:36:22;;;;;;;3.25;1.52;;;3.20;99.90;;;;;;5093695;28;20669;-61
2024/01/15 11:38:50;;;;;;;4.40;1.65;;;3.30;99.90;;;;;;5093706;28;20596;-62
2024/01/15 11:41:17;;;;;;;8.77;2.25;;;3.30;99.90;;;;;;5093562;28;20582;-61
2024/01/15 11:43:44;;;;;;;5.18;2.35;;;3.30;99.90;;;;;;5093139;28;20275;-61
2024/01/15 11:46:12;;;;;;;2.10;1.70;;;3.40;99.90;;;;;;5093222;28;20211;-62
2024/01/15 11:48:45;;;;;;;4.43;1.65;;;3.40;99.90;;;;;;5093645;28;20200;-63
2024/01/15 11:51:13;;;;;;;3.38;2.22;;;3.30;99.90;;;;;;5093181;28;20311;-61
2024/01/15 11:53:45;;;;;;;4.03;1.90;;;3.30;99.90;;;;;;5093491;28;20224;-62
2024/01/15 11:56:18;;;;;;;2.70;1.60;;;3.20;99.90;;;;;;5093649;28;20188;-61
2024/01/15 11:58:45;;;;;;;4.35;1.83;;;3.20;99.90;;;;;;5093218;28;20656;-62
2024/01/15 12:01:12;;;;;;;2.95;2.00;;;3.20;99.90;;;;;;5092920;28;20682;-61
2024/01/15 12:03:39;;;;;;;4.57;2.15;;;3.20;99.90;;;;;;5093792;28;20185;-61
2024/01/15 12:06:07;;;;;;;7.05;2.53;;;3.20;99.90;;;;;;5093581;28;20223;-61
2024/01/15 12:08:34;;;;;;;6.55;2.63;;;3.20;99.90;;;;;;5093406;28;20265;-62
2024/01/15 12:11:02;;;;;;;2.85;1.98;;;3.20;99.90;;;;;;5093207;28;20196;-61
2024/01/15 12:13:30;;;;;;;3.55;1.80;;;3.20;99.90;;;;;;5092866;28;20216;-62
2024/01/15 12:15:56;;;;;;;3.70;2.10;;;3.10;99.90;;;;;;5093483;28;20227;-62
2024/01/15 12:18:23;;;;;;;3.60;2.00;;;3.10;99.90;;;;;;5093379;28;20208;-62
2024/01/15 12:20:50;;;;;;;7.43;1.90;;;3.10;99.90;;;;;;5093041;28;20200;-61
2024/01/15 12:23:17;;;;;;;2.80;2.10;;;3.00;99.90;;;;;;5093563;28;20204;-60
2024/01/15 12:25:44;;;;;;;4.15;2.08;;;3.00;99.90;;;;;;5092840;28;20275;-62
2024/01/15 12:28:11;;;;;;;4.00;1.77;;;3.00;99.90;;;;;;5093038;28;20204;-62
2024/01/15 12:30:40;;;;;;;3.13;2.00;;;3.00;99.90;;;;;;5093061;28;20211;-62
2024/01/15 12:33:08;;;;;;;5.30;1.60;;;3.00;99.90;;;;;;5093859;28;20228;-62
2024/01/15 12:35:35;;;;;;;6.18;2.30;;;3.10;99.90;;;;;;5097126;28;20235;-61
2024/01/15 12:38:03;;;;;;;10.48;2.63;;;3.20;99.90;;;;;;5096956;28;20200;-61
2024/01/15 12:40:30;;;;;;;4.03;1.85;;;3.30;99.90;;;;;;5097231;28;20206;-62
2024/01/15 12:42:57;;;;;;;7.10;2.08;;;3.40;99.90;;;;;;5097821;28;20227;-61
2024/01/15 12:45:25;;;;;;;5.97;1.92;;;3.40;99.90;;;;;;5097030;28;20201;-62
2024/01/15 12:47:54;;;;;;;4.60;2.03;;;3.40;99.90;;;;;;5096903;28;20686;-61
2024/01/15 12:50:26;;;;;;;4.40;2.70;;;3.40;99.90;;;;;;5097453;28;20206;-61
2024/01/15 12:52:52;;;;;;;4.60;1.83;;;3.40;99.90;;;;;;5097188;28;20285;-62
2024/01/15 12:55:19;;;;;;;4.22;1.90;;;3.40;99.90;;;;;;5097132;28;20599;-61
2024/01/15 12:57:46;;;;;;;6.43;1.85;;;3.30;99.90;;;;;;5096736;28;20592;-61